Rancho California, California
Current Conditions -  °F | °C
As of 12:35 PM on Thursday 27 Nov 2014 (Local Time) from KF70 Reporting Station
Clear Clear  
Wind Chill: 86°   Ceiling: Unl
Heat Index: 86°   Visibility: 10mi
Dew Point: 18°   Wind: 0mph
Humidity: 8%   Direction: NA
Pressure: 30.07"   Gusts: NA
Location:  33.4798°N, 117.225°W
Report Text: KF70 272035Z AUTO 00000KT 10SM CLR 30/M08 A3007 RMK AO1
Loading
Personal Weather Stations






























Interactive Weather Map New forecast layout! Learn more

10-Day Weather Forecast

Advertisements
Track Severe Weather on mobile